Time;durP1;ratioP1;P1;durP2;ratioP2;P2;SDS_P1;SDS_P2;PMS_P1;PMS_P2;Temp;Humidity;BMP_temperature;BMP_pressure;BME280_temperature;BME280_humidity;BME280_pressure;Samples;Min_cycle;Max_cycle;Signal;HPM_P1;HPM_P2
2023/07/28 00:02:12;;;;;;;1.15;0.43;;;;;;;;;;5139000;27;20023;-62
2023/07/28 00:04:37;;;;;;;1.70;0.40;;;;;;;;;;5127900;27;20023;-61
2023/07/28 00:07:03;;;;;;;1.83;0.60;;;;;;;;;;5122809;27;20065;-62
2023/07/28 00:09:28;;;;;;;1.20;0.40;;;;;;;;;;5137429;27;20499;-62
2023/07/28 00:11:53;;;;;;;1.37;0.50;;;;;;;;;;5155128;27;20026;-61
2023/07/28 00:14:18;;;;;;;2.13;0.50;;;;;;;;;;5143291;27;20027;-61
2023/07/28 00:16:43;;;;;;;1.97;0.40;;;;;;;;;;5139119;27;20024;-62
2023/07/28 00:19:09;;;;;;;1.47;0.50;;;;;;;;;;5141486;27;20983;-62
2023/07/28 00:21:34;;;;;;;3.43;0.60;;;;;;;;;;5136786;27;20019;-62
2023/07/28 00:23:59;;;;;;;1.73;0.50;;;;;;;;;;5131451;27;20028;-61
2023/07/28 00:26:24;;;;;;;1.92;0.55;;;;;;;;;;5142938;27;20083;-62
2023/07/28 00:28:49;;;;;;;1.70;0.60;;;;;;;;;;5121296;27;20038;-63
2023/07/28 00:31:15;;;;;;;1.88;0.70;;;;;;;;;;5125594;27;20468;-62
2023/07/28 00:33:40;;;;;;;1.47;0.60;;;;;;;;;;5128463;27;20465;-63
2023/07/28 00:36:05;;;;;;;3.83;0.70;;;;;;;;;;5121319;27;20024;-63
2023/07/28 00:38:30;;;;;;;2.10;0.70;;;;;;;;;;5131737;27;20091;-62
2023/07/28 00:40:55;;;;;;;1.87;0.70;;;;;;;;;;5131751;27;20073;-62
2023/07/28 00:43:20;;;;;;;2.10;0.70;;;;;;;;;;5131199;27;20194;-63
2023/07/28 00:45:46;;;;;;;1.97;0.80;;;;;;;;;;5129403;27;20019;-63
2023/07/28 00:48:12;;;;;;;1.90;0.70;;;;;;;;;;5130148;27;20087;-62
2023/07/28 00:50:37;;;;;;;;;;;;;;;;;;5132269;27;20552;-62
2023/07/28 00:53:02;;;;;;;1.52;0.60;;;;;;;;;;5122187;27;20479;-61
2023/07/28 00:55:28;;;;;;;1.53;0.63;;;;;;;;;;5131684;27;20023;-63
2023/07/28 00:57:53;;;;;;;1.93;0.60;;;;;;;;;;5131350;27;20490;-63
2023/07/28 01:00:18;;;;;;;1.57;0.57;;;;;;;;;;5131613;27;20008;-64
2023/07/28 01:02:43;;;;;;;1.80;0.70;;;;;;;;;;5129872;27;20016;-64
2023/07/28 01:05:09;;;;;;;2.25;0.73;;;;;;;;;;5132643;27;20079;-63
2023/07/28 01:07:46;;;;;;;2.25;0.80;;;;;;;;;;5131670;27;20015;-61
2023/07/28 01:10:14;;;;;;;1.67;0.63;;;;;;;;;;5122692;27;20027;-64
2023/07/28 01:12:39;;;;;;;1.90;0.70;;;;;;;;;;5131272;27;20026;-61
2023/07/28 01:15:05;;;;;;;1.87;0.80;;;;;;;;;;5130986;27;20023;-61
2023/07/28 01:17:30;;;;;;;2.00;0.70;;;;;;;;;;5131295;27;20102;-63
2023/07/28 01:19:56;;;;;;;3.27;1.03;;;;;;;;;;5131439;27;20366;-63
2023/07/28 01:22:39;;;;;;;2.03;0.70;;;;;;;;;;5131138;27;20398;-63
2023/07/28 01:25:23;;;;;;;3.17;0.90;;;;;;;;;;5131105;27;20023;-63
2023/07/28 01:27:49;;;;;;;3.25;1.10;;;;;;;;;;5122507;27;20023;-62
2023/07/28 01:30:14;;;;;;;3.67;0.95;;;;;;;;;;5131138;27;20015;-62
2023/07/28 01:32:41;;;;;;;3.87;1.10;;;;;;;;;;5130179;27;20015;-62
2023/07/28 01:35:06;;;;;;;;;;;;;;;;;;5122206;27;20027;-62
2023/07/28 01:37:31;;;;;;;2.90;1.00;;;;;;;;;;5132924;27;19907;-62
2023/07/28 01:39:57;;;;;;;3.00;1.00;;;;;;;;;;5126012;27;20019;-61
2023/07/28 01:42:22;;;;;;;4.22;1.15;;;;;;;;;;5139597;27;20588;-63
2023/07/28 01:44:47;;;;;;;3.78;1.40;;;;;;;;;;5133171;27;20054;-63
2023/07/28 01:47:13;;;;;;;4.25;1.20;;;;;;;;;;5139688;27;20046;-61
2023/07/28 01:49:38;;;;;;;3.33;1.20;;;;;;;;;;5137495;27;20104;-61
2023/07/28 01:52:03;;;;;;;2.67;1.00;;;;;;;;;;5140993;27;20382;-60
2023/07/28 01:54:28;;;;;;;4.03;1.35;;;;;;;;;;5137343;27;20495;-62
2023/07/28 01:56:53;;;;;;;4.17;1.33;;;;;;;;;;5141911;27;20014;-62
2023/07/28 01:59:20;;;;;;;3.40;1.30;;;;;;;;;;5134421;27;20024;-62
2023/07/28 02:01:45;;;;;;;3.47;1.10;;;;;;;;;;5139866;27;20220;-61
2023/07/28 02:04:10;;;;;;;3.13;1.20;;;;;;;;;;5131967;27;20034;-61
2023/07/28 02:06:36;;;;;;;2.77;1.27;;;;;;;;;;5138495;27;20019;-61
2023/07/28 02:09:01;;;;;;;3.97;1.10;;;;;;;;;;5142478;27;20018;-62
2023/07/28 02:11:26;;;;;;;3.80;1.30;;;;;;;;;;5127967;27;20395;-62
2023/07/28 02:13:51;;;;;;;7.17;1.60;;;;;;;;;;5136119;27;20478;-62
2023/07/28 02:16:16;;;;;;;3.40;1.20;;;;;;;;;;5135934;27;20102;-63
2023/07/28 02:18:42;;;;;;;3.17;1.37;;;;;;;;;;5140576;27;20111;-64
2023/07/28 02:21:09;;;;;;;5.73;1.53;;;;;;;;;;5141487;27;20152;-64
2023/07/28 02:23:35;;;;;;;5.53;1.30;;;;;;;;;;5136716;27;20030;-63
2023/07/28 02:26:00;;;;;;;4.97;1.40;;;;;;;;;;5128296;27;20022;-63
2023/07/28 02:28:25;;;;;;;3.47;1.33;;;;;;;;;;5132425;27;20105;-64
2023/07/28 02:30:50;;;;;;;3.70;1.10;;;;;;;;;;5124036;27;20046;-64
2023/07/28 02:33:15;;;;;;;3.27;0.97;;;;;;;;;;5134173;27;20035;-64
2023/07/28 02:35:40;;;;;;;3.17;1.20;;;;;;;;;;5141010;27;20027;-65
2023/07/28 02:38:06;;;;;;;3.47;1.40;;;;;;;;;;5133592;27;20022;-64
2023/07/28 02:40:32;;;;;;;4.33;1.50;;;;;;;;;;5140796;27;20037;-63
2023/07/28 02:42:58;;;;;;;3.10;1.10;;;;;;;;;;5149404;27;20441;-63
2023/07/28 02:45:24;;;;;;;;;;;;;;;;;;5149080;27;20023;-63
2023/07/28 02:47:49;;;;;;;3.05;1.10;;;;;;;;;;5140565;27;21643;-64
2023/07/28 02:50:14;;;;;;;4.18;1.48;;;;;;;;;;5142662;27;20033;-64
2023/07/28 02:52:39;;;;;;;3.77;1.30;;;;;;;;;;5138379;27;20050;-64
2023/07/28 02:55:05;;;;;;;4.57;1.55;;;;;;;;;;5140854;27;20033;-66
2023/07/28 02:57:30;;;;;;;3.47;1.30;;;;;;;;;;5133506;27;20018;-62
2023/07/28 02:59:55;;;;;;;3.50;1.20;;;;;;;;;;5137547;27;20123;-64
2023/07/28 03:02:20;;;;;;;3.27;1.00;;;;;;;;;;5125689;27;20028;-64
2023/07/28 03:04:45;;;;;;;4.27;1.30;;;;;;;;;;5129610;27;20489;-64
2023/07/28 03:07:11;;;;;;;3.78;1.23;;;;;;;;;;5129068;27;20083;-64
2023/07/28 03:09:36;;;;;;;3.28;1.30;;;;;;;;;;5132503;27;20363;-64
2023/07/28 03:12:01;;;;;;;3.50;1.30;;;;;;;;;;5124318;27;20043;-64
2023/07/28 03:14:26;;;;;;;2.67;1.00;;;;;;;;;;5126062;27;20039;-63
2023/07/28 03:16:51;;;;;;;2.97;1.10;;;;;;;;;;5136001;27;20035;-64
2023/07/28 03:19:17;;;;;;;3.78;1.30;;;;;;;;;;5139001;27;20529;-63
2023/07/28 03:21:42;;;;;;;3.28;1.13;;;;;;;;;;5126865;27;20027;-63
2023/07/28 03:24:07;;;;;;;4.50;1.23;;;;;;;;;;5136284;27;20071;-63
2023/07/28 03:26:33;;;;;;;2.63;0.93;;;;;;;;;;5126380;27;20035;-64
2023/07/28 03:28:58;;;;;;;2.87;1.10;;;;;;;;;;5131935;27;20031;-64
2023/07/28 03:31:23;;;;;;;3.22;1.13;;;;;;;;;;5142819;27;20394;-64
2023/07/28 03:33:48;;;;;;;3.40;0.97;;;;;;;;;;5126698;27;20058;-63
2023/07/28 03:36:13;;;;;;;2.67;0.93;;;;;;;;;;5135364;27;20023;-63
2023/07/28 03:38:38;;;;;;;3.03;1.10;;;;;;;;;;5135804;27;20037;-62
2023/07/28 03:41:04;;;;;;;3.97;1.10;;;;;;;;;;5134671;27;20498;-63
2023/07/28 03:43:29;;;;;;;3.50;1.50;;;;;;;;;;5132086;27;20023;-63
2023/07/28 03:45:54;;;;;;;3.13;1.20;;;;;;;;;;5140717;27;20393;-64
2023/07/28 03:48:19;;;;;;;3.57;1.30;;;;;;;;;;5128998;27;20106;-62
2023/07/28 03:50:44;;;;;;;3.20;1.40;;;;;;;;;;5130515;27;20015;-62
2023/07/28 03:53:09;;;;;;;6.90;1.20;;;;;;;;;;5140681;27;20053;-63
2023/07/28 03:55:35;;;;;;;3.10;1.20;;;;;;;;;;5144739;27;20034;-64
2023/07/28 03:58:00;;;;;;;3.77;1.20;;;;;;;;;;5140591;27;20110;-64
2023/07/28 04:00:25;;;;;;;3.80;1.30;;;;;;;;;;5129209;27;20035;-63
2023/07/28 04:02:50;;;;;;;3.77;1.10;;;;;;;;;;5137131;27;20058;-63
2023/07/28 04:05:15;;;;;;;3.33;0.90;;;;;;;;;;5129222;27;20386;-62
2023/07/28 04:07:40;;;;;;;3.07;1.00;;;;;;;;;;5137030;27;20022;-64
2023/07/28 04:10:06;;;;;;;2.93;1.10;;;;;;;;;;5130242;27;20027;-63
2023/07/28 04:12:31;;;;;;;5.00;1.35;;;;;;;;;;5143593;27;20019;-62
2023/07/28 04:14:56;;;;;;;2.60;1.10;;;;;;;;;;5120918;27;20609;-62
2023/07/28 04:17:21;;;;;;;3.53;1.10;;;;;;;;;;5126684;27;20015;-64
2023/07/28 04:19:47;;;;;;;3.63;1.03;;;;;;;;;;5128762;27;20031;-64
2023/07/28 04:22:13;;;;;;;3.33;0.83;;;;;;;;;;5143001;27;20030;-62
2023/07/28 04:24:38;;;;;;;3.28;1.00;;;;;;;;;;5135236;27;20023;-63
2023/07/28 04:27:03;;;;;;;3.03;1.20;;;;;;;;;;5139414;27;20463;-64
2023/07/28 04:29:28;;;;;;;2.30;0.80;;;;;;;;;;5137775;27;20015;-64
2023/07/28 04:31:54;;;;;;;2.50;1.00;;;;;;;;;;5113402;27;20469;-64
2023/07/28 04:34:19;;;;;;;2.97;1.10;;;;;;;;;;5130798;27;20031;-63
2023/07/28 04:36:44;;;;;;;2.07;0.83;;;;;;;;;;5130466;27;20015;-66
2023/07/28 04:39:09;;;;;;;2.30;0.90;;;;;;;;;;5136086;27;20024;-63
2023/07/28 04:41:35;;;;;;;4.07;1.30;;;;;;;;;;5128803;27;20051;-64
2023/07/28 04:44:00;;;;;;;3.03;0.90;;;;;;;;;;5130178;27;20020;-64
2023/07/28 04:46:25;;;;;;;5.10;1.45;;;;;;;;;;5129015;27;20027;-64
2023/07/28 04:48:51;;;;;;;2.47;0.80;;;;;;;;;;5137262;27;20650;-63
2023/07/28 04:51:16;;;;;;;3.47;0.83;;;;;;;;;;5127239;27;20026;-64
2023/07/28 04:53:41;;;;;;;3.47;0.93;;;;;;;;;;5136108;27;20083;-62
2023/07/28 04:56:07;;;;;;;2.72;0.80;;;;;;;;;;5128816;27;20030;-64
2023/07/28 04:58:33;;;;;;;3.33;0.90;;;;;;;;;;5137801;27;20022;-64
2023/07/28 05:00:58;;;;;;;2.00;0.63;;;;;;;;;;5127419;27;20071;-63
2023/07/28 05:03:23;;;;;;;2.87;0.90;;;;;;;;;;5131559;27;20019;-65
2023/07/28 05:05:48;;;;;;;2.23;0.70;;;;;;;;;;5108418;27;20053;-61
2023/07/28 05:08:13;;;;;;;4.30;0.90;;;;;;;;;;5113949;27;20015;-63
2023/07/28 05:10:40;;;;;;;2.87;1.00;;;;;;;;;;5132328;27;20053;-63
2023/07/28 05:13:05;;;;;;;2.75;0.85;;;;;;;;;;5127747;27;20402;-64
2023/07/28 05:15:30;;;;;;;3.57;0.90;;;;;;;;;;5113305;27;20031;-62
2023/07/28 05:17:56;;;;;;;3.10;1.13;;;;;;;;;;5127388;27;20155;-63
2023/07/28 05:20:21;;;;;;;4.07;1.00;;;;;;;;;;5139881;27;20410;-61
2023/07/28 05:22:46;;;;;;;2.87;1.10;;;;;;;;;;5124208;27;20482;-62
2023/07/28 05:25:11;;;;;;;3.78;1.20;;;;;;;;;;5127035;27;20030;-62
2023/07/28 05:27:37;;;;;;;3.40;1.20;;;;;;;;;;5128271;27;20097;-63
2023/07/28 05:30:02;;;;;;;3.03;0.80;;;;;;;;;;5119607;27;20023;-63
2023/07/28 05:32:27;;;;;;;2.50;0.77;;;;;;;;;;5138592;27;20027;-63
2023/07/28 05:34:52;;;;;;;4.00;1.00;;;;;;;;;;5129945;27;20046;-63
2023/07/28 05:37:17;;;;;;;2.50;0.90;;;;;;;;;;5126347;27;20019;-64
2023/07/28 05:39:44;;;;;;;2.13;0.90;;;;;;;;;;5126242;27;20102;-64
2023/07/28 05:42:09;;;;;;;2.60;0.75;;;;;;;;;;5125067;27;20051;-62
2023/07/28 05:44:34;;;;;;;3.07;0.80;;;;;;;;;;5143498;27;20038;-65
2023/07/28 05:46:59;;;;;;;2.93;0.93;;;;;;;;;;5142246;27;20389;-62
2023/07/28 05:49:24;;;;;;;2.50;0.80;;;;;;;;;;5140826;27;20022;-62
2023/07/28 05:51:49;;;;;;;2.50;0.97;;;;;;;;;;5130380;27;20466;-62
2023/07/28 05:54:15;;;;;;;2.00;0.80;;;;;;;;;;5138004;27;20085;-63
2023/07/28 05:56:40;;;;;;;2.40;0.93;;;;;;;;;;5133764;27;20046;-62
2023/07/28 05:59:06;;;;;;;4.60;1.33;;;;;;;;;;5144082;27;20022;-63
2023/07/28 06:01:31;;;;;;;4.03;1.03;;;;;;;;;;5141166;27;20022;-63
2023/07/28 06:03:58;;;;;;;2.58;0.90;;;;;;;;;;5141568;27;20037;-63
2023/07/28 06:06:24;;;;;;;2.70;0.90;;;;;;;;;;5129655;27;20019;-64
2023/07/28 06:08:49;;;;;;;4.03;0.90;;;;;;;;;;5136157;27;20019;-62
2023/07/28 06:11:14;;;;;;;2.57;0.93;;;;;;;;;;5135381;27;20028;-65
2023/07/28 06:13:39;;;;;;;3.40;0.90;;;;;;;;;;5135466;27;20113;-62
2023/07/28 06:16:04;;;;;;;3.07;1.00;;;;;;;;;;5140247;27;20026;-61
2023/07/28 06:18:29;;;;;;;2.73;0.60;;;;;;;;;;5152197;27;20137;-62
2023/07/28 06:20:55;;;;;;;3.60;0.85;;;;;;;;;;5151907;27;20031;-62
2023/07/28 06:23:20;;;;;;;1.87;0.70;;;;;;;;;;5149990;27;20031;-63
2023/07/28 06:25:46;;;;;;;4.13;1.00;;;;;;;;;;5118346;27;20474;-64
2023/07/28 06:28:11;;;;;;;3.00;0.90;;;;;;;;;;5128699;27;20442;-63
2023/07/28 06:30:37;;;;;;;3.17;0.70;;;;;;;;;;5126880;27;20445;-64
2023/07/28 06:33:03;;;;;;;1.13;0.50;;;;;;;;;;5121605;27;20019;-63
2023/07/28 06:35:28;;;;;;;1.40;0.63;;;;;;;;;;5133799;27;20024;-64
2023/07/28 06:37:53;;;;;;;2.10;0.70;;;;;;;;;;5139366;27;20386;-64
2023/07/28 06:40:18;;;;;;;2.77;0.60;;;;;;;;;;5126768;27;20054;-64
2023/07/28 06:42:44;;;;;;;1.83;0.80;;;;;;;;;;5121985;27;20032;-63
2023/07/28 06:45:09;;;;;;;2.83;0.83;;;;;;;;;;5142677;27;20482;-64
2023/07/28 06:47:34;;;;;;;2.53;0.70;;;;;;;;;;5145491;27;20021;-64
2023/07/28 06:49:59;;;;;;;2.83;0.80;;;;;;;;;;5154846;27;20026;-62
2023/07/28 06:52:24;;;;;;;2.47;0.70;;;;;;;;;;5155061;27;20029;-62
2023/07/28 06:54:50;;;;;;;2.23;0.70;;;;;;;;;;5154368;27;20037;-65
2023/07/28 06:57:15;;;;;;;0.93;0.40;;;;;;;;;;5138932;27;20016;-64
2023/07/28 06:59:41;;;;;;;3.63;0.70;;;;;;;;;;5114050;27;20020;-64
2023/07/28 07:02:06;;;;;;;1.65;0.68;;;;;;;;;;5114406;28;20031;-64
2023/07/28 07:04:31;;;;;;;2.40;0.60;;;;;;;;;;5120940;27;20023;-64
2023/07/28 07:06:56;;;;;;;4.57;0.60;;;;;;;;;;5127794;27;20869;-64
2023/07/28 07:09:21;;;;;;;1.20;0.50;;;;;;;;;;5113210;28;20076;-64
2023/07/28 07:11:47;;;;;;;1.85;0.40;;;;;;;;;;5112906;27;20508;-63
2023/07/28 07:14:12;;;;;;;1.07;0.50;;;;;;;;;;5112540;28;20020;-62
2023/07/28 07:16:37;;;;;;;1.23;0.50;;;;;;;;;;5113222;28;20490;-62
2023/07/28 07:19:02;;;;;;;1.83;0.53;;;;;;;;;;5115692;27;20020;-63
2023/07/28 07:21:29;;;;;;;1.58;0.50;;;;;;;;;;5124208;27;20092;-63
2023/07/28 07:23:54;;;;;;;1.92;0.52;;;;;;;;;;5112499;28;20440;-63
2023/07/28 07:26:19;;;;;;;1.92;0.55;;;;;;;;;;5112698;28;20467;-64
2023/07/28 07:28:45;;;;;;;2.63;0.40;;;;;;;;;;5112344;27;20493;-64
2023/07/28 07:31:14;;;;;;;0.97;0.40;;;;;;;;;;5112814;28;20024;-65
2023/07/28 07:33:39;;;;;;;1.55;0.40;;;;;;;;;;5112404;28;20020;-64
2023/07/28 07:36:04;;;;;;;0.93;0.40;;;;;;;;;;5112853;28;20020;-63
2023/07/28 07:38:29;;;;;;;1.73;0.57;;;;;;;;;;5112975;28;20016;-63
2023/07/28 07:40:54;;;;;;;1.57;0.60;;;;;;;;;;5113452;28;20043;-64
2023/07/28 07:43:20;;;;;;;1.30;0.50;;;;;;;;;;5113772;28;20023;-63
2023/07/28 07:45:46;;;;;;;1.02;0.50;;;;;;;;;;5113560;28;20103;-63
2023/07/28 07:48:12;;;;;;;1.02;0.50;;;;;;;;;;5113080;28;20087;-62
2023/07/28 07:50:37;;;;;;;1.80;0.60;;;;;;;;;;5112420;28;20027;-63
2023/07/28 07:53:02;;;;;;;1.42;0.40;;;;;;;;;;5112188;28;20453;-63
2023/07/28 07:55:27;;;;;;;2.08;0.30;;;;;;;;;;5112459;27;20035;-65
2023/07/28 07:57:52;;;;;;;1.33;0.50;;;;;;;;;;5112707;28;20019;-65
2023/07/28 08:00:18;;;;;;;2.30;0.47;;;;;;;;;;5112428;28;20035;-61
2023/07/28 08:02:43;;;;;;;1.33;0.40;;;;;;;;;;5115637;27;20136;-63
2023/07/28 08:05:09;;;;;;;0.70;0.40;;;;;;;;;;5132693;27;20061;-63
2023/07/28 08:07:34;;;;;;;0.90;0.30;;;;;;;;;;5132672;27;20023;-62
2023/07/28 08:10:00;;;;;;;1.45;0.52;;;;;;;;;;5132414;27;20030;-61
2023/07/28 08:12:26;;;;;;;1.80;0.50;;;;;;;;;;5132675;27;20498;-63
2023/07/28 08:14:51;;;;;;;3.30;0.57;;;;;;;;;;5132230;27;20095;-64
2023/07/28 08:17:16;;;;;;;1.80;0.52;;;;;;;;;;5132403;27;20021;-62
2023/07/28 08:19:41;;;;;;;1.40;0.50;;;;;;;;;;5132643;27;20478;-65
2023/07/28 08:22:06;;;;;;;0.97;0.37;;;;;;;;;;5132555;27;20016;-64
2023/07/28 08:24:32;;;;;;;2.20;0.40;;;;;;;;;;5117684;27;20457;-64
2023/07/28 08:26:57;;;;;;;1.80;0.53;;;;;;;;;;5111728;27;20058;-64
2023/07/28 08:29:22;;;;;;;1.00;0.37;;;;;;;;;;5110891;27;20821;-63
2023/07/28 08:31:47;;;;;;;0.63;0.27;;;;;;;;;;5111688;28;20023;-65
2023/07/28 08:34:13;;;;;;;1.80;0.52;;;;;;;;;;5110936;28;20522;-66
2023/07/28 08:36:38;;;;;;;0.77;0.40;;;;;;;;;;5111709;28;20024;-64
2023/07/28 08:39:03;;;;;;;1.13;0.30;;;;;;;;;;5111451;28;20015;-63
2023/07/28 08:41:29;;;;;;;1.38;0.40;;;;;;;;;;5111632;28;20020;-63
2023/07/28 08:43:54;;;;;;;1.23;0.40;;;;;;;;;;5111191;28;20015;-63
2023/07/28 08:46:19;;;;;;;2.93;0.50;;;;;;;;;;5111582;28;20023;-64
2023/07/28 08:48:45;;;;;;;1.48;0.50;;;;;;;;;;5111300;27;20027;-63
2023/07/28 08:51:11;;;;;;;1.55;0.50;;;;;;;;;;5111572;28;20023;-61
2023/07/28 08:53:37;;;;;;;;;;;;;;;;;;5111042;28;20030;-63
2023/07/28 08:56:03;;;;;;;1.08;0.40;;;;;;;;;;5111304;28;19903;-63
2023/07/28 08:58:29;;;;;;;2.90;0.60;;;;;;;;;;5111387;28;20023;-64
2023/07/28 09:00:54;;;;;;;0.82;0.40;;;;;;;;;;5111380;28;20785;-65
2023/07/28 09:03:19;;;;;;;1.70;0.40;;;;;;;;;;5126391;27;20059;-62
2023/07/28 09:05:48;;;;;;;1.50;0.57;;;;;;;;;;5111120;27;20563;-63
2023/07/28 09:08:16;;;;;;;1.17;0.50;;;;;;;;;;5111044;28;20019;-62
2023/07/28 09:10:42;;;;;;;1.77;0.47;;;;;;;;;;5111173;28;20039;-63
2023/07/28 09:13:12;;;;;;;0.85;0.40;;;;;;;;;;5110504;28;20371;-63
2023/07/28 09:15:37;;;;;;;0.82;0.40;;;;;;;;;;5111017;28;20092;-63
2023/07/28 09:18:02;;;;;;;1.77;0.50;;;;;;;;;;5110780;28;20020;-65
2023/07/28 09:20:33;;;;;;;1.87;0.60;;;;;;;;;;5111049;28;20102;-64
2023/07/28 09:22:58;;;;;;;1.63;0.55;;;;;;;;;;5110661;28;20077;-63
2023/07/28 09:25:24;;;;;;;1.70;0.60;;;;;;;;;;5110770;28;20405;-64
2023/07/28 09:27:52;;;;;;;1.83;0.70;;;;;;;;;;5110109;28;20024;-64
2023/07/28 09:30:17;;;;;;;2.30;0.60;;;;;;;;;;5111101;28;20079;-63
2023/07/28 09:32:46;;;;;;;1.30;0.60;;;;;;;;;;5110500;28;20016;-65
2023/07/28 09:35:12;;;;;;;2.25;0.60;;;;;;;;;;5110436;28;20024;-63
2023/07/28 09:37:39;;;;;;;2.35;0.60;;;;;;;;;;5110310;28;20475;-63
2023/07/28 09:40:06;;;;;;;1.80;0.43;;;;;;;;;;5110699;28;20031;-62
2023/07/28 09:42:32;;;;;;;2.83;0.60;;;;;;;;;;5110858;28;20371;-62
2023/07/28 09:44:57;;;;;;;1.63;0.60;;;;;;;;;;5110522;28;20030;-64
2023/07/28 09:47:23;;;;;;;1.27;0.52;;;;;;;;;;5109556;28;20020;-63
2023/07/28 09:49:50;;;;;;;1.98;0.80;;;;;;;;;;5111304;28;20034;-64
2023/07/28 09:52:17;;;;;;;1.95;0.60;;;;;;;;;;5110959;28;20016;-64
2023/07/28 09:54:42;;;;;;;1.75;0.50;;;;;;;;;;5110396;28;20100;-65
2023/07/28 09:57:10;;;;;;;0.90;0.40;;;;;;;;;;5110830;28;20479;-64
2023/07/28 09:59:38;;;;;;;2.17;0.50;;;;;;;;;;5110939;28;20047;-61
2023/07/28 10:02:03;;;;;;;0.88;0.40;;;;;;;;;;5127723;27;20024;-63
2023/07/28 10:04:29;;;;;;;2.97;0.47;;;;;;;;;;5119287;28;20030;-63
2023/07/28 10:06:56;;;;;;;1.25;0.45;;;;;;;;;;5111118;27;20043;-63
2023/07/28 10:09:21;;;;;;;1.88;0.70;;;;;;;;;;5112475;28;20027;-64
2023/07/28 10:11:47;;;;;;;1.55;0.40;;;;;;;;;;5113250;28;20020;-64
2023/07/28 10:14:24;;;;;;;0.93;0.50;;;;;;;;;;5115144;28;20023;-63
2023/07/28 10:16:49;;;;;;;1.52;0.50;;;;;;;;;;5119441;28;20019;-62
2023/07/28 10:19:19;;;;;;;0.53;0.30;;;;;;;;;;5120357;28;20599;-63
2023/07/28 10:21:45;;;;;;;2.00;0.55;;;;;;;;;;5118444;28;20543;-62
2023/07/28 10:24:10;;;;;;;1.15;0.43;;;;;;;;;;5113941;28;20143;-63
2023/07/28 10:26:41;;;;;;;1.57;0.40;;;;;;;;;;5114432;28;20031;-64
2023/07/28 10:29:13;;;;;;;1.85;0.40;;;;;;;;;;5114070;28;20054;-64
2023/07/28 10:31:48;;;;;;;2.35;0.50;;;;;;;;;;5113924;28;20049;-64
2023/07/28 10:34:15;;;;;;;1.25;0.40;;;;;;;;;;5113555;28;20031;-64
2023/07/28 10:36:43;;;;;;;2.55;0.50;;;;;;;;;;5113721;28;20012;-62
2023/07/28 10:39:17;;;;;;;1.33;0.50;;;;;;;;;;5113850;28;20023;-63
2023/07/28 10:42:00;;;;;;;1.90;0.65;;;;;;;;;;5113704;28;20069;-65
2023/07/28 10:44:26;;;;;;;1.20;0.40;;;;;;;;;;5113623;28;20020;-63
2023/07/28 10:46:51;;;;;;;0.95;0.40;;;;;;;;;;5113568;28;20031;-63
2023/07/28 10:49:17;;;;;;;1.37;0.50;;;;;;;;;;5113728;28;20016;-62
2023/07/28 10:51:42;;;;;;;1.40;0.50;;;;;;;;;;5113567;28;20455;-64
2023/07/28 10:54:07;;;;;;;2.92;0.82;;;;;;;;;;5112922;28;20031;-63
2023/07/28 10:56:32;;;;;;;3.30;0.90;;;;;;;;;;5113591;28;20016;-63
2023/07/28 10:59:04;;;;;;;1.60;0.43;;;;;;;;;;5113375;28;20387;-64
2023/07/28 11:01:36;;;;;;;3.22;0.80;;;;;;;;;;5127374;27;20523;-63
2023/07/28 11:04:09;;;;;;;2.15;0.68;;;;;;;;;;5133267;27;20019;-63
2023/07/28 11:06:35;;;;;;;3.05;0.95;;;;;;;;;;5133975;27;20043;-63
2023/07/28 11:09:01;;;;;;;3.20;1.10;;;;;;;;;;5133505;27;20141;-62
2023/07/28 11:11:26;;;;;;;2.53;0.70;;;;;;;;;;5133872;27;20076;-63
2023/07/28 11:13:51;;;;;;;1.88;0.68;;;;;;;;;;5128927;27;20020;-63
2023/07/28 11:16:16;;;;;;;0.90;0.40;;;;;;;;;;5113135;28;20059;-63
2023/07/28 11:18:41;;;;;;;1.10;0.50;;;;;;;;;;5112935;28;20020;-62
2023/07/28 11:21:06;;;;;;;1.13;0.50;;;;;;;;;;5113211;28;20012;-64
2023/07/28 11:23:32;;;;;;;1.80;0.60;;;;;;;;;;5112580;28;20577;-65
2023/07/28 11:25:58;;;;;;;1.30;0.45;;;;;;;;;;5113064;28;20019;-62
2023/07/28 11:28:23;;;;;;;;;;;;;;;;;;5113411;28;20532;-63
2023/07/28 11:30:48;;;;;;;1.02;0.47;;;;;;;;;;5112964;28;19903;-63
2023/07/28 11:33:13;;;;;;;3.17;0.70;;;;;;;;;;5112444;28;20033;-62
2023/07/28 11:35:42;;;;;;;0.97;0.40;;;;;;;;;;5112042;27;20024;-63
2023/07/28 11:38:08;;;;;;;2.10;0.60;;;;;;;;;;5112740;28;20395;-63
2023/07/28 11:40:33;;;;;;;1.65;0.60;;;;;;;;;;5112649;28;20442;-63
2023/07/28 11:42:59;;;;;;;1.83;0.60;;;;;;;;;;5112235;28;20116;-63
2023/07/28 11:45:24;;;;;;;3.95;0.68;;;;;;;;;;5113559;27;20055;-63
2023/07/28 11:47:54;;;;;;;1.43;0.50;;;;;;;;;;5112342;28;20082;-63
2023/07/28 11:50:27;;;;;;;1.15;0.50;;;;;;;;;;5112154;28;20107;-61
2023/07/28 11:52:52;;;;;;;3.28;0.50;;;;;;;;;;5111801;28;20111;-63
2023/07/28 11:55:18;;;;;;;2.03;0.70;;;;;;;;;;5111522;27;20106;-65
2023/07/28 11:57:43;;;;;;;2.70;0.50;;;;;;;;;;5112228;28;20023;-64
2023/07/28 12:00:08;;;;;;;1.67;0.55;;;;;;;;;;5120287;27;20031;-63
2023/07/28 12:02:34;;;;;;;0.57;0.40;;;;;;;;;;5112140;28;20039;-62
2023/07/28 12:04:59;;;;;;;1.33;0.60;;;;;;;;;;5112243;28;20055;-63
2023/07/28 12:07:24;;;;;;;;;;;;;;;;;;5112646;28;20027;-63
2023/07/28 12:09:53;;;;;;;1.63;0.60;;;;;;;;;;5112160;28;19911;-63
2023/07/28 12:12:23;;;;;;;1.15;0.50;;;;;;;;;;5112065;27;20045;-64
2023/07/28 12:14:51;;;;;;;1.70;0.60;;;;;;;;;;5111664;28;20015;-63
2023/07/28 12:17:19;;;;;;;1.17;0.50;;;;;;;;;;5115379;27;20420;-61
2023/07/28 12:20:00;;;;;;;1.10;0.47;;;;;;;;;;5132568;27;20025;-64
2023/07/28 12:22:25;;;;;;;0.95;0.50;;;;;;;;;;5132622;27;20430;-63
2023/07/28 12:24:51;;;;;;;1.50;0.50;;;;;;;;;;5132028;27;20058;-62
2023/07/28 12:27:16;;;;;;;;;;;;;;;;;;5133100;27;20022;-63
2023/07/28 12:29:41;;;;;;;2.28;0.85;;;;;;;;;;5132321;27;19903;-63
2023/07/28 12:32:06;;;;;;;1.60;0.60;;;;;;;;;;5132285;27;20505;-62
2023/07/28 12:34:32;;;;;;;1.20;0.50;;;;;;;;;;5131685;27;20464;-64
2023/07/28 12:36:57;;;;;;;1.38;0.50;;;;;;;;;;5131672;27;20026;-63
2023/07/28 12:39:23;;;;;;;;;;;;;;;;;;5132790;27;20047;-62
2023/07/28 12:41:48;;;;;;;1.25;0.50;;;;;;;;;;5118779;27;19920;-62
2023/07/28 12:44:13;;;;;;;;;;;;;;;;;;5110517;27;20114;-62
2023/07/28 12:46:39;;;;;;;3.17;0.70;;;;;;;;;;5114088;28;19915;-63
2023/07/28 12:49:06;;;;;;;;;;;;;;;;;;5114411;27;20406;-62
2023/07/28 12:51:31;;;;;;;2.10;0.40;;;;;;;;;;5112367;27;19908;-64
2023/07/28 12:53:57;;;;;;;3.33;0.70;;;;;;;;;;5111185;28;20023;-63
2023/07/28 12:56:22;;;;;;;;;;;;;;;;;;5112022;28;20475;-63
2023/07/28 12:58:47;;;;;;;1.63;0.70;;;;;;;;;;5124402;27;19911;-62
2023/07/28 13:01:12;;;;;;;1.60;0.67;;;;;;;;;;5132009;27;20043;-64
2023/07/28 13:03:38;;;;;;;;;;;;;;;;;;5110187;28;20457;-63
2023/07/28 13:06:03;;;;;;;1.83;0.70;;;;;;;;;;5112291;28;20424;-63
2023/07/28 13:08:29;;;;;;;2.13;0.57;;;;;;;;;;5110044;28;20024;-63
2023/07/28 13:10:54;;;;;;;1.20;0.53;;;;;;;;;;5111329;28;20072;-63
2023/07/28 13:13:19;;;;;;;1.70;0.73;;;;;;;;;;5111236;28;20023;-63
2023/07/28 13:15:44;;;;;;;1.23;0.50;;;;;;;;;;5110998;28;20027;-62
2023/07/28 13:18:09;;;;;;;2.57;0.70;;;;;;;;;;5111071;28;20028;-62
2023/07/28 13:20:34;;;;;;;3.08;0.70;;;;;;;;;;5111081;28;20497;-62
2023/07/28 13:23:00;;;;;;;1.13;0.43;;;;;;;;;;5110537;28;20124;-63
2023/07/28 13:25:25;;;;;;;1.00;0.50;;;;;;;;;;5111352;28;20024;-64
2023/07/28 13:27:50;;;;;;;2.00;0.57;;;;;;;;;;5111311;28;20054;-62
2023/07/28 13:30:15;;;;;;;2.50;0.60;;;;;;;;;;5111264;27;20016;-63
2023/07/28 13:32:40;;;;;;;;;;;;;;;;;;5110919;28;20042;-62
2023/07/28 13:35:06;;;;;;;1.27;0.60;;;;;;;;;;5111077;28;19908;-63
2023/07/28 13:37:31;;;;;;;1.00;0.50;;;;;;;;;;5111325;28;20488;-63
2023/07/28 13:39:56;;;;;;;1.80;0.67;;;;;;;;;;5111285;28;20018;-62
2023/07/28 13:42:21;;;;;;;;;;;;;;;;;;5111642;28;20031;-62
2023/07/28 13:44:47;;;;;;;1.80;0.60;;;;;;;;;;5110592;28;20003;-62
2023/07/28 13:47:12;;;;;;;1.65;0.50;;;;;;;;;;5111205;28;20030;-62
2023/07/28 13:49:37;;;;;;;2.53;0.60;;;;;;;;;;5113316;28;20042;-62
2023/07/28 13:52:03;;;;;;;3.37;0.63;;;;;;;;;;5114971;28;20686;-63
2023/07/28 13:54:28;;;;;;;1.80;0.70;;;;;;;;;;5114229;28;20019;-63
2023/07/28 13:56:53;;;;;;;2.40;0.70;;;;;;;;;;5118488;27;20031;-64
2023/07/28 13:59:18;;;;;;;1.60;0.70;;;;;;;;;;5135323;27;20543;-64
2023/07/28 14:01:43;;;;;;;1.75;0.70;;;;;;;;;;5135100;27;20068;-61
2023/07/28 14:04:09;;;;;;;;;;;;;;;;;;5135199;27;20031;-64
2023/07/28 14:06:34;;;;;;;2.08;0.70;;;;;;;;;;5135278;27;19908;-62
2023/07/28 14:08:59;;;;;;;1.60;0.60;;;;;;;;;;5134827;27;20042;-63
2023/07/28 14:11:24;;;;;;;;;;;;;;;;;;5135504;27;20027;-63
2023/07/28 14:13:49;;;;;;;1.60;0.70;;;;;;;;;;5134483;27;19956;-62
2023/07/28 14:16:14;;;;;;;2.90;0.70;;;;;;;;;;5134822;27;20020;-62
2023/07/28 14:18:40;;;;;;;;;;;;;;;;;;5132220;27;20038;-62
2023/07/28 14:21:05;;;;;;;2.22;0.70;;;;;;;;;;5131882;27;19903;-62
2023/07/28 14:23:30;;;;;;;;;;;;;;;;;;5135121;27;20071;-64
2023/07/28 14:25:56;;;;;;;2.10;0.80;;;;;;;;;;5127510;27;19933;-62
2023/07/28 14:28:21;;;;;;;2.73;0.70;;;;;;;;;;5114399;28;20117;-62
2023/07/28 14:30:46;;;;;;;2.15;0.70;;;;;;;;;;5114027;28;20061;-62
2023/07/28 14:33:11;;;;;;;;;;;;;;;;;;5114198;27;20543;-63
2023/07/28 14:35:37;;;;;;;1.60;0.70;;;;;;;;;;5114126;28;20351;-62
2023/07/28 14:38:02;;;;;;;1.55;0.60;;;;;;;;;;5112729;27;20012;-63
2023/07/28 14:40:28;;;;;;;1.45;0.60;;;;;;;;;;5114277;27;20060;-62